Terminal Aerodrome Forecast
Issued by NWS

Home | Current Version | Previous Version | Text Only | Print | Product List | Glossary On
Versions: 1 2 3 4 5 6 7 8 9 10 11 12 13 14
934
FTUS45 KABQ 191132
TAFAEG
TAF
KAEG 191132Z 1912/2012 VRB05KT P6SM SKC
     FM191800 27011KT P6SM SCT130 BKN200
     FM192000 27014G23KT P6SM SCT060 BKN100
     FM200100 25010KT P6SM SCT035 BKN060
     FM200600 21008KT P6SM BKN035=

USA.gov is the U.S. government's official web portal to all federal, state and local government web resources and services.